Time;durP1;ratioP1;P1;durP2;ratioP2;P2;SDS_P1;SDS_P2;PMS_P1;PMS_P2;Temp;Humidity;BMP_temperature;BMP_pressure;BME280_temperature;BME280_humidity;BME280_pressure;Samples;Min_cycle;Max_cycle;Signal;HPM_P1;HPM_P2
2023/01/17 00:00:37;;;;;;;17.23;6.95;;;;;;;-1.13;88.30;99365.72;4858858;29;20049;-48
2023/01/17 00:03:03;;;;;;;15.35;6.47;;;;;;;-1.15;88.43;99377.59;4861936;29;20053;-50
2023/01/17 00:10:58;;;;;;;16.38;7.38;;;;;;;-1.14;88.64;99381.84;4858770;29;20104;-48
2023/01/17 00:13:24;;;;;;;14.88;6.45;;;;;;;-1.13;88.54;99386.13;4858762;29;20049;-46
2023/01/17 00:15:49;;;;;;;16.38;7.53;;;;;;;-1.13;88.88;99382.72;4858581;29;20428;-47
2023/01/17 00:18:16;;;;;;;13.38;6.47;;;;;;;-1.08;88.97;99391.25;4856875;29;20081;-46
2023/01/17 00:26:16;;;;;;;11.80;5.28;;;;;;;-1.01;89.00;99395.56;4861557;29;20135;-49
2023/01/17 01:35:53;;;;;;;16.35;8.07;;;;;;;-0.83;89.17;99362.50;4857192;29;20048;-47
2023/01/17 01:38:22;;;;;;;14.07;6.30;;;;;;;-0.78;89.01;99367.63;4871132;29;20041;-47
2023/01/17 01:40:50;;;;;;;18.55;8.65;;;;;;;-0.81;89.02;99354.88;4858751;29;20420;-51
2023/01/17 01:43:37;;;;;;;15.10;7.13;;;;;;;-0.87;88.92;99359.09;4858077;29;20041;-47
2023/01/17 01:46:03;;;;;;;19.92;8.02;;;;;;;-0.91;88.98;99359.91;4855394;29;20045;-47
2023/01/17 01:48:33;;;;;;;18.75;8.23;;;;;;;-0.91;88.90;99364.16;4870860;29;20148;-48
2023/01/17 01:51:01;;;;;;;20.27;9.65;;;;;;;-0.93;89.19;99350.53;4856885;29;20053;-49
2023/01/17 01:53:28;;;;;;;16.65;7.97;;;;;;;-0.84;89.28;99353.16;4855417;29;20064;-47
2023/01/17 01:55:54;;;;;;;16.52;7.95;;;;;;;-0.83;89.07;99347.19;4855435;29;20802;-51
2023/01/17 01:58:26;;;;;;;16.25;7.65;;;;;;;-0.81;89.04;99373.59;4856531;29;20478;-48
2023/01/17 02:00:52;;;;;;;19.73;8.98;;;;;;;-0.86;88.96;99350.59;4855224;29;20080;-51
2023/01/17 02:03:23;;;;;;;15.50;7.60;;;;;;;-0.85;88.95;99359.09;4861259;29;20064;-48
2023/01/17 02:05:49;;;;;;;19.13;7.70;;;;;;;-0.91;89.30;99333.53;4864762;29;20057;-50
2023/01/17 02:08:17;;;;;;;20.45;8.63;;;;;;;-0.83;89.04;99352.28;4855260;29;20117;-50
2023/01/17 02:10:44;;;;;;;18.30;7.32;;;;;;;-0.78;88.94;99367.63;4840281;29;20045;-48
2023/01/17 02:13:11;;;;;;;16.02;7.93;;;;;;;-0.82;88.98;99343.78;4855254;29;20037;-47
2023/01/17 02:15:55;;;;;;;20.50;8.50;;;;;;;-0.82;89.11;99359.09;4856231;29;20049;-50
2023/01/17 02:18:50;;;;;;;20.45;9.00;;;;;;;-0.83;88.92;99356.53;4856335;29;20072;-47
2023/01/17 02:21:41;;;;;;;14.93;6.65;;;;;;;-0.74;88.82;99364.28;4855251;29;20160;-46
2023/01/17 02:24:33;;;;;;;17.02;8.40;;;;;;;-0.80;88.89;99348.91;4856471;29;20038;-48
2023/01/17 02:27:27;;;;;;;16.40;6.80;;;;;;;-0.83;88.84;99344.63;4821997;29;20076;-43
2023/01/17 02:30:18;;;;;;;16.05;7.25;;;;;;;-0.82;88.79;99348.03;4855015;29;20042;-52
2023/01/17 02:32:54;;;;;;;21.10;8.35;;;;;;;-0.95;89.09;99312.28;4872319;29;20124;-49
2023/01/17 02:35:36;;;;;;;18.63;7.70;;;;;;;-0.73;89.04;99348.94;4873689;29;20048;-49
2023/01/17 02:38:12;;;;;;;16.15;7.68;;;;;;;-0.75;89.08;99337.03;4888934;29;20513;-51
2023/01/17 02:40:42;;;;;;;16.55;7.78;;;;;;;-0.73;89.23;99338.72;4874736;29;20097;-50
2023/01/17 02:43:12;;;;;;;17.13;7.07;;;;;;;-0.71;88.73;99342.16;4876441;29;20136;-46
2023/01/17 02:45:38;;;;;;;17.90;8.82;;;;;;;-0.75;88.93;99335.34;4908358;29;20059;-49
2023/01/17 02:48:06;;;;;;;15.55;7.38;;;;;;;-0.76;88.70;99325.97;4878346;29;20056;-49
2023/01/17 02:50:59;;;;;;;18.20;8.93;;;;;;;-0.71;88.76;99331.94;4861928;29;20041;-51
2023/01/17 02:53:24;;;;;;;15.93;7.63;;;;;;;-0.71;88.45;99334.50;4862795;29;20053;-50
2023/01/17 02:56:07;;;;;;;21.60;8.65;;;;;;;-0.67;88.61;99332.81;4877102;29;20436;-46
2023/01/17 02:58:51;;;;;;;16.35;7.50;;;;;;;-0.67;88.31;99323.47;4892558;29;20045;-46
2023/01/17 03:01:41;;;;;;;19.52;9.05;;;;;;;-0.62;88.49;99321.78;4878213;29;20076;-49
2023/01/17 03:04:24;;;;;;;18.27;8.75;;;;;;;-0.58;88.37;99332.88;4877909;29;20044;-51
2023/01/17 03:06:54;;;;;;;13.23;6.90;;;;;;;-0.59;87.69;99332.03;4859884;29;20124;-50
2023/01/17 03:09:21;;;;;;;19.20;8.45;;;;;;;-0.61;87.78;99313.28;4858264;29;20041;-51
2023/01/17 03:11:47;;;;;;;18.98;8.88;;;;;;;-0.68;87.96;99301.31;4858071;29;20052;-51
2023/01/17 03:14:13;;;;;;;16.60;7.30;;;;;;;-0.55;87.32;99315.88;4859400;29;20132;-48
2023/01/17 03:16:38;;;;;;;17.70;8.30;;;;;;;-0.55;87.31;99302.25;4864916;29;20131;-48
2023/01/17 03:19:04;;;;;;;17.45;7.85;;;;;;;-0.51;87.04;99317.56;4868808;29;20044;-49
2023/01/17 03:21:30;;;;;;;17.40;8.57;;;;;;;-0.53;86.85;99324.41;4846035;29;20045;-47
2023/01/17 03:23:56;;;;;;;15.77;6.90;;;;;;;-0.47;86.67;99321.84;4878100;29;20045;-50
2023/01/17 03:26:22;;;;;;;17.58;8.02;;;;;;;-0.52;86.42;99318.41;4868677;29;20050;-49
2023/01/17 03:28:48;;;;;;;16.67;8.18;;;;;;;-0.49;86.42;99317.59;4858623;29;20435;-49
2023/01/17 03:31:15;;;;;;;16.08;8.35;;;;;;;-0.50;85.94;99311.63;4869849;29;20057;-48
2023/01/17 03:33:40;;;;;;;19.23;8.70;;;;;;;-0.63;86.30;99293.72;4859132;29;20049;-47
2023/01/17 03:36:07;;;;;;;17.92;8.73;;;;;;;-0.47;85.98;99315.88;4876237;29;20077;-49
2023/01/17 03:38:33;;;;;;;18.58;9.15;;;;;;;-0.48;85.78;99316.75;4877494;29;20049;-47
2023/01/17 03:40:58;;;;;;;18.85;8.73;;;;;;;-0.51;86.03;99307.34;4876200;29;20553;-48
2023/01/17 03:43:24;;;;;;;17.70;9.27;;;;;;;-0.44;85.83;99305.69;4907702;29;20052;-48
2023/01/17 03:45:53;;;;;;;16.70;8.52;;;;;;;-0.42;85.86;99314.22;4877369;29;20140;-49
2023/01/17 03:48:20;;;;;;;17.50;8.50;;;;;;;-0.37;86.06;99309.13;4877211;29;20794;-53
2023/01/17 03:50:50;;;;;;;17.20;9.05;;;;;;;-0.32;85.91;99304.88;4875923;29;20144;-47
2023/01/17 03:53:15;;;;;;;17.58;8.30;;;;;;;-0.30;86.03;99305.72;4858448;29;20073;-48
2023/01/17 03:55:44;;;;;;;21.25;8.73;;;;;;;-0.29;85.40;99312.53;4857312;29;20053;-51
2023/01/17 03:58:10;;;;;;;15.82;8.05;;;;;;;-0.27;85.53;99316.81;4862493;29;20422;-48
2023/01/17 04:00:36;;;;;;;16.08;8.10;;;;;;;-0.47;84.91;99291.19;4875982;29;20048;-48
2023/01/17 04:03:02;;;;;;;18.15;8.98;;;;;;;-0.48;85.24;99294.63;4875859;29;20544;-48
2023/01/17 04:05:28;;;;;;;15.75;7.70;;;;;;;-0.24;85.09;99314.25;4875594;29;20049;-49
2023/01/17 04:07:54;;;;;;;17.30;8.85;;;;;;;-0.27;85.16;99323.63;4875852;29;20140;-49
2023/01/17 04:10:20;;;;;;;15.02;7.68;;;;;;;-0.47;84.75;99286.09;4876641;29;20060;-47
2023/01/17 04:12:46;;;;;;;18.05;8.38;;;;;;;-0.31;84.66;99322.75;4875134;29;20109;-49
2023/01/17 04:15:11;;;;;;;17.20;8.80;;;;;;;-0.43;84.78;99298.03;4877029;29;20093;-49
2023/01/17 04:17:37;;;;;;;18.42;8.45;;;;;;;-0.20;84.68;99327.88;4859521;29;20083;-48
2023/01/17 04:20:04;;;;;;;19.02;8.60;;;;;;;-0.19;84.38;99330.47;4875628;29;20052;-52
2023/01/17 04:22:30;;;;;;;17.75;7.53;;;;;;;-0.19;84.86;99333.00;4875527;29;20553;-49
2023/01/17 04:24:57;;;;;;;13.18;6.80;;;;;;;-0.43;84.61;99302.28;4876678;29;20406;-49
2023/01/17 04:27:23;;;;;;;23.00;8.77;;;;;;;-0.45;85.03;99296.31;4875451;29;20132;-49
2023/01/17 04:29:49;;;;;;;18.17;8.82;;;;;;;-0.19;85.25;99333.00;4876712;29;20492;-48
2023/01/17 04:32:15;;;;;;;19.35;8.60;;;;;;;-0.19;84.70;99335.56;4858950;29;20140;-49
2023/01/17 04:34:41;;;;;;;19.15;8.82;;;;;;;-0.24;85.18;99333.84;4857828;29;20060;-50
2023/01/17 04:37:07;;;;;;;17.88;8.73;;;;;;;-0.27;85.30;99339.81;4887877;29;20478;-47
2023/01/17 04:39:32;;;;;;;12.00;6.53;;;;;;;-0.35;85.61;99340.59;4857800;29;20045;-47
2023/01/17 04:41:58;;;;;;;18.35;9.30;;;;;;;-0.31;85.80;99352.53;4877604;29;20048;-48
2023/01/17 04:44:24;;;;;;;17.65;7.38;;;;;;;-0.30;86.11;99344.88;4877379;29;20044;-47
2023/01/17 04:46:50;;;;;;;22.67;8.52;;;;;;;-0.34;85.61;99338.06;4876527;29;20045;-47
2023/01/17 04:49:16;;;;;;;20.15;8.45;;;;;;;-0.26;85.48;99341.50;4892228;29;20052;-51
2023/01/17 04:51:42;;;;;;;17.40;7.93;;;;;;;-0.27;85.57;99341.50;4894932;29;20044;-50
2023/01/17 04:54:08;;;;;;;20.42;8.98;;;;;;;-0.25;85.58;99347.44;4894156;29;20065;-47
2023/01/17 04:56:34;;;;;;;18.88;8.52;;;;;;;-0.23;85.64;99338.09;4882794;29;20047;-46
2023/01/17 04:59:00;;;;;;;18.92;8.52;;;;;;;-0.21;85.20;99339.81;4885540;29;20072;-45
2023/01/17 05:01:26;;;;;;;21.00;9.40;;;;;;;-0.50;85.42;99281.00;4885187;29;20478;-47
2023/01/17 05:03:52;;;;;;;16.88;8.95;;;;;;;-0.19;85.44;99332.16;4883797;29;20045;-46
2023/01/17 05:06:17;;;;;;;21.40;9.10;;;;;;;-0.16;85.21;99342.41;4863668;29;20051;-47
2023/01/17 05:08:43;;;;;;;22.30;9.77;;;;;;;-0.11;85.54;99339.00;4887392;29;20131;-49
2023/01/17 05:11:11;;;;;;;22.23;9.48;;;;;;;-0.05;85.53;99336.44;4875438;29;20057;-48
2023/01/17 05:13:37;;;;;;;21.02;8.85;;;;;;;-0.08;85.63;99330.47;4874322;29;20048;-51
2023/01/17 05:16:03;;;;;;;20.25;9.43;;;;;;;-0.08;85.60;99338.16;4875532;29;20048;-51
2023/01/17 05:18:29;;;;;;;18.15;7.55;;;;;;;-0.05;85.89;99336.44;4872194;29;20072;-50
2023/01/17 05:21:00;;;;;;;15.82;7.25;;;;;;;-0.10;85.59;99332.16;4875047;29;20091;-49
2023/01/17 05:23:26;;;;;;;21.33;8.75;;;;;;;-0.10;85.51;99333.03;4891854;29;20499;-45
2023/01/17 05:25:52;;;;;;;18.05;8.57;;;;;;;-0.10;85.93;99337.28;4869695;29;20052;-49
2023/01/17 05:28:18;;;;;;;20.98;9.95;;;;;;;-0.14;85.84;99338.13;4839456;29;20045;-49
2023/01/17 05:30:44;;;;;;;15.15;6.90;;;;;;;-0.09;85.64;99347.50;4878936;29;20048;-47
2023/01/17 05:33:10;;;;;;;18.25;7.93;;;;;;;-0.17;85.75;99338.13;4876538;29;20056;-52
2023/01/17 05:35:36;;;;;;;15.73;7.47;;;;;;;-0.16;86.09;99339.84;4858457;29;20052;-48
2023/01/17 05:38:02;;;;;;;20.63;7.30;;;;;;;-0.16;86.16;99339.84;4855686;29;20052;-46
2023/01/17 05:40:30;;;;;;;15.80;7.72;;;;;;;-0.12;85.91;99344.97;4854858;29;20137;-48
2023/01/17 05:42:58;;;;;;;16.48;8.27;;;;;;;-0.12;85.97;99337.28;4854828;29;20037;-51
2023/01/17 05:45:26;;;;;;;17.95;8.60;;;;;;;-0.45;85.94;99279.31;4884606;29;20475;-49
2023/01/17 05:47:53;;;;;;;18.92;8.82;;;;;;;-0.10;86.05;99342.38;4853460;29;20518;-47
2023/01/17 05:50:22;;;;;;;19.55;9.02;;;;;;;-0.11;85.57;99345.81;4854708;29;20052;-48
2023/01/17 05:52:57;;;;;;;18.38;8.13;;;;;;;-0.11;85.87;99348.38;4853599;29;20045;-51
2023/01/17 05:55:24;;;;;;;12.52;6.65;;;;;;;-0.11;85.77;99353.47;4870186;29;20072;-48
2023/01/17 05:57:50;;;;;;;17.02;8.07;;;;;;;-0.11;86.09;99353.47;4839812;29;20041;-50
2023/01/17 06:00:36;;;;;;;19.05;9.07;;;;;;;-0.12;85.89;99339.84;4855010;29;20061;-47
2023/01/17 06:03:02;;;;;;;15.98;8.55;;;;;;;-0.11;86.07;99344.13;4856399;29;20045;-50
2023/01/17 06:05:29;;;;;;;18.95;8.35;;;;;;;-0.09;85.88;99349.22;4862789;29;20136;-48
2023/01/17 06:07:55;;;;;;;16.80;7.70;;;;;;;-0.10;86.32;99350.06;4874711;29;20041;-50
2023/01/17 06:10:22;;;;;;;21.35;9.48;;;;;;;-0.14;86.31;99333.88;4874771;29;20044;-48
2023/01/17 06:12:48;;;;;;;18.63;9.05;;;;;;;-0.09;86.67;99339.84;4874745;29;20041;-48
2023/01/17 06:15:15;;;;;;;17.40;8.27;;;;;;;-0.09;87.03;99350.06;4874608;29;20077;-50
2023/01/17 06:17:41;;;;;;;18.92;8.52;;;;;;;-0.11;86.90;99348.38;4872592;29;20549;-48
2023/01/17 06:20:08;;;;;;;16.23;7.80;;;;;;;-0.10;86.95;99355.16;4873316;29;20036;-53
2023/01/17 06:22:34;;;;;;;19.50;9.05;;;;;;;-0.10;87.04;99334.72;4873148;29;20418;-47
2023/01/17 06:25:00;;;;;;;16.35;7.85;;;;;;;-0.14;87.12;99363.69;4873142;29;20140;-52
2023/01/17 06:27:26;;;;;;;19.05;8.80;;;;;;;-0.12;87.18;99349.22;4874444;29;20144;-52
2023/01/17 06:29:52;;;;;;;19.45;8.93;;;;;;;-0.06;87.68;99351.78;4874359;29;20069;-48
2023/01/17 06:32:18;;;;;;;18.52;8.80;;;;;;;-0.02;87.08;99353.50;4860599;29;20061;-47
2023/01/17 06:34:44;;;;;;;20.05;9.05;;;;;;;-0.25;87.55;99311.69;4856275;29;20042;-50
2023/01/17 06:37:10;;;;;;;19.40;8.57;;;;;;;-0.05;87.39;99346.66;4854888;29;20529;-52
2023/01/17 06:39:36;;;;;;;16.40;8.27;;;;;;;-0.04;87.81;99357.75;4856068;29;20045;-53
2023/01/17 06:42:01;;;;;;;22.55;8.30;;;;;;;0.02;89.13;99359.47;4885746;29;20115;-55
2023/01/17 06:44:27;;;;;;;16.48;7.68;;;;;;;0.09;89.93;99367.16;4855766;29;20093;-50
2023/01/17 06:46:53;;;;;;;19.08;9.15;;;;;;;0.09;90.36;99356.94;4855808;29;20049;-49
2023/01/17 06:49:19;;;;;;;20.38;9.57;;;;;;;-0.13;90.40;99317.69;4854497;29;20125;-49
2023/01/17 06:51:45;;;;;;;23.67;8.50;;;;;;;0.13;90.61;99356.09;4854704;29;20510;-48
2023/01/17 06:54:11;;;;;;;19.52;7.60;;;;;;;0.12;90.19;99356.06;4855854;29;20060;-50
2023/01/17 06:56:37;;;;;;;19.35;9.18;;;;;;;0.15;90.57;99346.72;4855962;29;20048;-51
2023/01/17 06:59:03;;;;;;;20.08;9.52;;;;;;;0.08;90.49;99314.34;4855814;29;20422;-49
2023/01/17 07:01:29;;;;;;;19.02;8.43;;;;;;;0.31;89.77;99345.91;4855990;29;20054;-48
2023/01/17 07:03:55;;;;;;;22.73;9.90;;;;;;;0.40;89.93;99337.38;4855985;29;20068;-49
2023/01/17 07:06:23;;;;;;;21.63;10.25;;;;;;;0.47;89.22;99357.00;4868337;29;20053;-51
2023/01/17 07:08:49;;;;;;;21.90;9.77;;;;;;;0.42;89.11;99354.41;4872844;29;20410;-48
2023/01/17 07:11:15;;;;;;;21.73;9.25;;;;;;;0.36;88.98;99354.44;4874466;29;20045;-50
2023/01/17 07:13:43;;;;;;;20.70;9.85;;;;;;;0.33;88.99;99356.97;4872753;29;20041;-50
2023/01/17 07:16:09;;;;;;;20.65;9.10;;;;;;;0.41;88.96;99357.84;4874254;29;20143;-50
2023/01/17 07:18:35;;;;;;;22.92;9.55;;;;;;;0.44;88.63;99354.44;4874227;29;20131;-50
2023/01/17 07:21:01;;;;;;;19.80;9.68;;;;;;;0.30;88.48;99326.31;4872660;29;20047;-51
2023/01/17 07:23:27;;;;;;;22.85;8.45;;;;;;;0.46;88.22;99359.56;4874079;29;20429;-47
2023/01/17 07:25:54;;;;;;;18.40;9.43;;;;;;;0.42;88.44;99356.97;4867690;29;20627;-52
2023/01/17 07:28:20;;;;;;;17.65;8.82;;;;;;;0.56;88.49;99354.44;4855537;29;20092;-48
2023/01/17 07:30:47;;;;;;;19.02;9.80;;;;;;;0.38;87.77;99332.25;4860948;29;20533;-50
2023/01/17 07:33:13;;;;;;;22.45;9.88;;;;;;;0.60;87.79;99352.72;4877376;29;20040;-51
2023/01/17 07:35:39;;;;;;;17.08;7.35;;;;;;;0.57;87.54;99361.28;4877450;29;20049;-50
2023/01/17 07:38:10;;;;;;;26.63;9.15;;;;;;;0.51;87.47;99356.16;4877667;29;20072;-49
2023/01/17 07:40:38;;;;;;;21.75;9.75;;;;;;;0.51;87.44;99361.25;4876109;29;20048;-50
2023/01/17 07:43:14;;;;;;;22.25;9.10;;;;;;;0.56;87.60;99369.78;4877304;29;20036;-47
2023/01/17 07:45:42;;;;;;;20.67;9.77;;;;;;;0.26;87.94;99313.53;4876006;29;20619;-52
2023/01/17 07:48:09;;;;;;;23.05;9.55;;;;;;;0.48;88.24;99327.13;4877341;29;20595;-50
2023/01/17 07:50:36;;;;;;;21.15;8.70;;;;;;;0.68;87.36;99362.09;4877248;29;20431;-49
2023/01/17 07:53:02;;;;;;;25.17;10.40;;;;;;;0.71;87.88;99349.31;4876970;29;20045;-47
2023/01/17 07:55:28;;;;;;;19.35;10.18;;;;;;;0.78;87.77;99362.97;4875886;29;20065;-50
2023/01/17 07:57:54;;;;;;;22.50;9.40;;;;;;;0.79;87.57;99356.97;4877096;29;20041;-48
2023/01/17 08:00:22;;;;;;;22.75;9.65;;;;;;;0.82;87.24;99354.44;4876947;29;20527;-49
2023/01/17 08:02:48;;;;;;;23.45;10.25;;;;;;;0.84;87.31;99362.94;4875810;29;20067;-52
2023/01/17 08:05:15;;;;;;;21.30;10.02;;;;;;;0.59;87.46;99318.63;4876970;29;20041;-49
2023/01/17 08:07:41;;;;;;;18.58;8.82;;;;;;;0.84;87.40;99345.03;4876757;29;20124;-47
2023/01/17 08:10:11;;;;;;;20.70;8.10;;;;;;;0.87;87.24;99364.66;4877225;29;20189;-47
2023/01/17 08:12:38;;;;;;;18.88;8.57;;;;;;;0.83;87.17;99361.25;4875878;29;20048;-50
2023/01/17 08:15:05;;;;;;;20.95;8.98;;;;;;;0.82;87.02;99364.66;4876929;29;20051;-49
2023/01/17 08:17:31;;;;;;;22.45;9.88;;;;;;;0.83;87.14;99371.50;4876558;29;20055;-48
2023/01/17 08:19:57;;;;;;;22.23;10.05;;;;;;;0.84;86.93;99363.81;4876719;29;20573;-48
2023/01/17 08:22:23;;;;;;;15.52;7.68;;;;;;;0.90;86.90;99362.09;4875230;29;20498;-48
2023/01/17 08:24:49;;;;;;;23.33;9.85;;;;;;;0.93;87.37;99357.00;4875297;29;20049;-47
2023/01/17 08:27:15;;;;;;;20.27;8.52;;;;;;;1.03;87.12;99359.53;4859703;29;20064;-49
2023/01/17 08:29:45;;;;;;;17.77;9.25;;;;;;;1.08;87.31;99365.50;4887855;29;20414;-48
2023/01/17 08:32:11;;;;;;;22.20;9.95;;;;;;;1.13;86.89;99355.25;4871055;29;20044;-52
2023/01/17 08:34:37;;;;;;;24.35;10.05;;;;;;;1.17;87.67;99350.13;4876538;29;20052;-50
2023/01/17 08:37:03;;;;;;;21.10;9.20;;;;;;;1.25;89.93;99345.00;4876371;29;20051;-50
2023/01/17 08:39:29;;;;;;;18.85;9.15;;;;;;;1.27;91.80;99348.38;4875893;29;20108;-49
2023/01/17 08:41:56;;;;;;;18.05;9.75;;;;;;;1.23;93.29;99346.69;4875270;29;20043;-49
2023/01/17 08:44:22;;;;;;;23.55;7.95;;;;;;;1.28;94.79;99350.09;4876304;29;20040;-49
2023/01/17 08:46:49;;;;;;;22.70;9.35;;;;;;;1.27;96.17;99339.00;4876437;29;20124;-50
2023/01/17 08:49:15;;;;;;;17.33;8.00;;;;;;;0.94;97.12;99281.94;4874844;29;20139;-47
2023/01/17 08:51:41;;;;;;;20.48;9.90;;;;;;;1.24;98.30;99349.25;4876299;29;20136;-51
2023/01/17 08:54:08;;;;;;;24.30;9.55;;;;;;;1.25;98.92;99334.75;4871190;29;20061;-50
2023/01/17 08:56:34;;;;;;;20.23;8.80;;;;;;;1.31;99.40;99346.69;4856420;29;20534;-47
2023/01/17 08:59:01;;;;;;;22.77;9.45;;;;;;;1.10;99.38;99311.75;4857665;29;20475;-49
2023/01/17 09:01:27;;;;;;;25.63;10.55;;;;;;;1.32;99.74;99343.25;4857466;29;20049;-47
2023/01/17 09:03:53;;;;;;;30.52;11.27;;;;;;;1.33;100.00;99335.56;4856122;29;20093;-50
2023/01/17 09:06:19;;;;;;;21.92;10.68;;;;;;;1.36;100.00;99330.41;4868685;29;20052;-50
2023/01/17 09:08:46;;;;;;;21.50;9.77;;;;;;;1.41;100.00;99335.56;4905880;29;20049;-49
2023/01/17 09:11:16;;;;;;;17.58;8.35;;;;;;;1.37;100.00;99362.00;4875967;29;20052;-46
2023/01/17 09:13:42;;;;;;;22.50;10.82;;;;;;;1.35;100.00;99331.31;4875936;29;20775;-48
2023/01/17 09:16:08;;;;;;;21.60;9.35;;;;;;;1.45;100.00;99344.94;4905750;29;20127;-49
2023/01/17 09:18:35;;;;;;;25.45;10.23;;;;;;;1.43;100.00;99334.69;4875800;29;20826;-48
2023/01/17 09:21:15;;;;;;;20.75;8.77;;;;;;;1.54;100.00;99339.75;4875515;29;20508;-49
2023/01/17 09:23:41;;;;;;;24.38;10.07;;;;;;;1.55;100.00;99342.31;4875559;29;20505;-48
2023/01/17 09:26:19;;;;;;;25.63;11.15;;;;;;;1.55;100.00;99329.53;4854905;29;20437;-49
2023/01/17 09:28:45;;;;;;;26.88;10.45;;;;;;;1.58;99.61;99339.75;4855332;29;20152;-48
2023/01/17 09:31:11;;;;;;;21.27;9.60;;;;;;;1.58;100.00;99336.31;4862088;29;20136;-49
2023/01/17 09:33:37;;;;;;;18.30;9.32;;;;;;;1.58;99.39;99337.19;4873963;29;20092;-48
2023/01/17 09:36:04;;;;;;;24.38;10.75;;;;;;;1.58;99.75;99334.63;4875345;29;20049;-49
2023/01/17 09:38:31;;;;;;;21.50;8.07;;;;;;;1.40;100.00;99277.50;4875368;29;20089;-50
2023/01/17 09:40:57;;;;;;;25.73;11.00;;;;;;;1.68;100.00;99332.88;4875518;29;20040;-51
2023/01/17 09:43:39;;;;;;;31.13;11.07;;;;;;;1.70;100.00;99352.50;4875452;29;20067;-50
2023/01/17 09:46:14;;;;;;;25.70;10.57;;;;;;;1.71;100.00;99320.06;4875275;29;20059;-51
2023/01/17 09:48:42;;;;;;;19.38;9.43;;;;;;;1.84;100.00;99325.94;4889445;29;20037;-48
2023/01/17 09:51:13;;;;;;;21.20;9.55;;;;;;;1.63;100.00;99286.78;4873401;29;20044;-51
2023/01/17 09:53:40;;;;;;;25.88;11.50;;;;;;;1.76;100.00;99328.56;4873910;29;20061;-49
2023/01/17 09:56:16;;;;;;;26.20;11.25;;;;;;;1.82;100.00;99338.78;4873904;29;20045;-49
2023/01/17 09:59:00;;;;;;;29.15;11.60;;;;;;;1.84;100.00;99331.09;4905125;29;20069;-47
2023/01/17 10:01:40;;;;;;;23.27;10.30;;;;;;;1.89;100.00;99349.84;4858432;29;20060;-48
2023/01/17 10:04:54;;;;;;;28.38;11.98;;;;;;;1.85;100.00;99340.47;4904948;29;20101;-48
2023/01/17 10:07:36;;;;;;;21.88;10.90;;;;;;;1.79;100.00;99331.09;4847404;29;20588;-49
2023/01/17 10:10:25;;;;;;;22.42;9.40;;;;;;;1.80;100.00;99343.06;4856325;29;20041;-49
2023/01/17 10:13:05;;;;;;;28.05;11.27;;;;;;;1.86;100.00;99326.81;4856328;29;20132;-45
2023/01/17 10:15:46;;;;;;;26.15;9.65;;;;;;;1.85;100.00;99331.09;4856120;29;20083;-51
2023/01/17 10:18:30;;;;;;;29.88;12.00;;;;;;;1.83;100.00;99334.53;4854931;29;20046;-47
2023/01/17 10:21:12;;;;;;;25.70;10.85;;;;;;;1.87;100.00;99331.09;4856070;29;20041;-53
2023/01/17 10:24:05;;;;;;;33.05;11.50;;;;;;;1.83;100.00;99335.38;4839543;29;20075;-52
2023/01/17 10:26:32;;;;;;;26.77;10.40;;;;;;;1.62;100.00;99309.84;4866897;29;20143;-50
2023/01/17 10:29:01;;;;;;;30.30;10.73;;;;;;;1.82;100.00;99328.56;4873391;29;20116;-46
2023/01/17 10:31:32;;;;;;;26.55;10.77;;;;;;;1.87;100.00;99333.66;4896796;29;20053;-50
2023/01/17 10:34:10;;;;;;;23.77;11.20;;;;;;;1.84;100.00;99334.50;4854913;29;20037;-50
2023/01/17 10:36:42;;;;;;;27.90;11.07;;;;;;;1.82;100.00;99325.13;4855889;29;20093;-47
2023/01/17 10:39:25;;;;;;;23.70;10.90;;;;;;;1.89;100.00;99329.34;4885559;29;20125;-48
2023/01/17 10:42:01;;;;;;;25.08;10.25;;;;;;;1.91;100.00;99338.75;4856067;29;20077;-52
2023/01/17 10:44:42;;;;;;;23.15;9.40;;;;;;;1.85;100.00;99330.22;4854909;29;20049;-49
2023/01/17 10:47:13;;;;;;;28.40;12.55;;;;;;;1.80;100.00;99327.69;4854892;29;20045;-52
2023/01/17 10:49:45;;;;;;;30.77;12.70;;;;;;;1.84;100.00;99338.78;4856036;29;20041;-50
2023/01/17 10:52:35;;;;;;;25.77;10.85;;;;;;;1.86;100.00;99337.06;4856078;29;20485;-49
2023/01/17 10:55:16;;;;;;;26.15;11.23;;;;;;;1.84;100.00;99334.50;4855462;29;20064;-49
2023/01/17 10:57:44;;;;;;;29.90;12.05;;;;;;;1.87;100.00;99331.09;4856546;29;20118;-49
2023/01/17 11:00:16;;;;;;;28.10;12.70;;;;;;;1.90;100.00;99338.75;4856032;29;20055;-48
2023/01/17 11:02:48;;;;;;;30.20;12.52;;;;;;;1.81;100.00;99320.84;4856510;29;20041;-49
2023/01/17 11:05:31;;;;;;;28.45;13.02;;;;;;;1.78;100.00;99311.47;4878803;29;20897;-48
2023/01/17 11:08:04;;;;;;;29.08;11.63;;;;;;;1.94;100.00;99332.72;4878226;29;20611;-48
2023/01/17 11:10:38;;;;;;;33.47;13.98;;;;;;;1.92;100.00;99337.88;4877913;29;20081;-51
2023/01/17 11:13:30;;;;;;;34.10;14.07;;;;;;;1.84;100.00;99339.63;4877790;29;20441;-48
2023/01/17 11:15:59;;;;;;;34.05;13.40;;;;;;;1.67;100.00;99319.19;4907733;29;20111;-49
2023/01/17 11:18:35;;;;;;;;;;;;;;;1.81;100.00;99347.34;4908035;29;20037;-48
2023/01/17 11:21:24;;;;;;;31.83;13.15;;;;;;;1.75;100.00;99332.00;4876466;29;19920;-52
2023/01/17 11:23:55;;;;;;;35.80;12.52;;;;;;;1.44;100.00;99299.69;4869293;29;20108;-48
2023/01/17 11:26:27;;;;;;;30.52;13.18;;;;;;;1.67;100.00;99341.44;4881477;29;20521;-49
2023/01/17 11:29:36;;;;;;;36.78;12.07;;;;;;;1.61;100.00;99326.94;4857394;29;20566;-49
2023/01/17 11:32:27;;;;;;;33.53;14.00;;;;;;;1.73;100.00;99332.88;4867602;29;20080;-49
2023/01/17 11:35:12;;;;;;;33.90;13.20;;;;;;;1.73;100.00;99332.88;4907038;29;20041;-50
2023/01/17 11:37:39;;;;;;;41.28;14.73;;;;;;;1.76;100.00;99328.56;4876108;29;20053;-49
2023/01/17 11:40:09;;;;;;;43.80;15.20;;;;;;;1.80;100.00;99332.81;4891386;29;20163;-48
2023/01/17 11:42:36;;;;;;;28.65;12.20;;;;;;;1.78;100.00;99334.53;4875926;29;20045;-51
2023/01/17 11:45:23;;;;;;;37.25;14.60;;;;;;;1.78;100.00;99320.88;4876009;29;20045;-50
2023/01/17 11:48:12;;;;;;;36.88;14.20;;;;;;;1.78;100.00;99331.97;4877332;29;20193;-48
2023/01/17 11:50:40;;;;;;;33.10;13.93;;;;;;;1.78;100.00;99336.25;4875833;29;20466;-52
2023/01/17 11:53:14;;;;;;;35.42;14.18;;;;;;;1.78;100.00;99338.81;4876830;29;20052;-48
2023/01/17 11:56:03;;;;;;;36.83;13.50;;;;;;;1.78;100.00;99333.69;4875702;29;20532;-50
2023/01/17 11:58:29;;;;;;;;;;;;;;;1.77;100.00;99332.84;4877773;29;20402;-51
2023/01/17 12:01:11;;;;;;;27.42;11.95;;;;;;;1.76;100.00;99348.22;4845040;29;19919;-48
2023/01/17 12:04:15;;;;;;;39.28;15.15;;;;;;;1.78;100.00;99338.81;4875661;29;20439;-49
2023/01/17 12:07:14;;;;;;;27.00;12.50;;;;;;;1.79;100.00;99341.34;4850333;29;20045;-49
2023/01/17 12:10:01;;;;;;;33.15;13.02;;;;;;;1.77;100.00;99337.97;4839408;29;20137;-51
2023/01/17 12:19:05;;;;;;;34.72;13.73;;;;;;;1.86;100.00;99337.91;4870528;29;20038;-50
2023/01/17 12:21:41;;;;;;;36.55;13.27;;;;;;;1.89;100.00;99331.91;4887894;29;20463;-51
2023/01/17 12:24:31;;;;;;;33.33;12.52;;;;;;;1.91;100.00;99343.00;4857974;29;20517;-51
2023/01/17 12:27:41;;;;;;;26.85;12.13;;;;;;;1.89;100.00;99344.72;4867780;29;20517;-47
2023/01/17 12:30:33;;;;;;;33.90;12.93;;;;;;;1.91;100.00;99332.75;4814751;29;20107;-49
2023/01/17 12:33:23;;;;;;;33.85;14.05;;;;;;;1.93;100.00;99331.06;4870132;29;20053;-47
2023/01/17 12:35:55;;;;;;;38.10;13.80;;;;;;;1.92;100.00;99337.88;4858059;29;20049;-48
2023/01/17 12:38:41;;;;;;;37.33;14.77;;;;;;;1.92;100.00;99345.59;4887727;29;20419;-53
2023/01/17 12:41:17;;;;;;;34.83;15.15;;;;;;;1.94;100.00;99343.84;4856371;29;20056;-52
2023/01/17 12:43:44;;;;;;;32.65;12.10;;;;;;;2.04;100.00;99337.81;4856710;29;20537;-49
2023/01/17 12:46:25;;;;;;;35.45;14.00;;;;;;;2.06;100.00;99332.66;4887559;29;20072;-49
2023/01/17 12:49:03;;;;;;;29.27;11.32;;;;;;;1.93;100.00;99303.72;4885591;29;20053;-46
2023/01/17 12:51:33;;;;;;;33.17;13.25;;;;;;;2.09;100.00;99336.06;4876252;29;20064;-48
2023/01/17 12:54:24;;;;;;;31.70;13.02;;;;;;;1.93;100.00;99293.47;4859298;29;20057;-50
2023/01/17 12:56:57;;;;;;;30.92;11.95;;;;;;;2.02;100.00;99306.22;4906169;29;20049;-53
2023/01/17 12:59:48;;;;;;;29.02;11.30;;;;;;;2.01;100.00;99312.19;4874883;29;20561;-47
2023/01/17 13:02:19;;;;;;;30.60;12.25;;;;;;;2.18;100.00;99327.47;4906071;29;20487;-50
2023/01/17 13:04:49;;;;;;;32.60;13.55;;;;;;;2.18;100.00;99334.31;4875768;29;20052;-49
2023/01/17 13:07:34;;;;;;;35.63;13.93;;;;;;;2.24;100.00;99344.53;4874813;29;20437;-47